sensor_id;sensor_type;location;lat;lon;timestamp;P1;durP1;ratioP1;P2;durP2;ratioP2
21769;SDS011;11046;49.558;8.674;2023-04-28T00:02:18;5.68;;;3.22;;
21769;SDS011;11046;49.558;8.674;2023-04-28T00:05:19;5.35;;;3.80;;
21769;SDS011;11046;49.558;8.674;2023-04-28T00:08:21;6.60;;;4.20;;
21769;SDS011;11046;49.558;8.674;2023-04-28T00:11:26;7.60;;;4.00;;
21769;SDS011;11046;49.558;8.674;2023-04-28T00:14:26;6.95;;;3.80;;
21769;SDS011;11046;49.558;8.674;2023-04-28T00:17:27;10.27;;;3.90;;
21769;SDS011;11046;49.558;8.674;2023-04-28T00:20:27;7.72;;;3.70;;
21769;SDS011;11046;49.558;8.674;2023-04-28T00:23:28;5.70;;;3.70;;
21769;SDS011;11046;49.558;8.674;2023-04-28T00:26:28;7.65;;;4.43;;
21769;SDS011;11046;49.558;8.674;2023-04-28T00:29:29;9.85;;;4.28;;
21769;SDS011;11046;49.558;8.674;2023-04-28T00:32:30;10.38;;;4.22;;
21769;SDS011;11046;49.558;8.674;2023-04-28T00:35:30;9.13;;;4.93;;
21769;SDS011;11046;49.558;8.674;2023-04-28T00:38:31;7.80;;;3.95;;
21769;SDS011;11046;49.558;8.674;2023-04-28T00:41:33;7.18;;;4.70;;
21769;SDS011;11046;49.558;8.674;2023-04-28T00:44:34;5.97;;;4.32;;
21769;SDS011;11046;49.558;8.674;2023-04-28T00:47:35;7.38;;;4.13;;
21769;SDS011;11046;49.558;8.674;2023-04-28T00:50:36;5.25;;;3.50;;
21769;SDS011;11046;49.558;8.674;2023-04-28T00:53:37;6.65;;;4.63;;
21769;SDS011;11046;49.558;8.674;2023-04-28T00:56:38;8.35;;;4.28;;
21769;SDS011;11046;49.558;8.674;2023-04-28T00:59:39;7.68;;;3.60;;
21769;SDS011;11046;49.558;8.674;2023-04-28T01:02:40;7.72;;;3.53;;
21769;SDS011;11046;49.558;8.674;2023-04-28T01:05:41;6.82;;;3.53;;
21769;SDS011;11046;49.558;8.674;2023-04-28T01:08:42;6.53;;;3.97;;
21769;SDS011;11046;49.558;8.674;2023-04-28T01:11:48;7.05;;;4.05;;
21769;SDS011;11046;49.558;8.674;2023-04-28T01:15:01;7.47;;;3.53;;
21769;SDS011;11046;49.558;8.674;2023-04-28T01:18:03;7.13;;;3.40;;
21769;SDS011;11046;49.558;8.674;2023-04-28T01:21:03;8.32;;;3.45;;
21769;SDS011;11046;49.558;8.674;2023-04-28T01:24:04;7.30;;;3.40;;
21769;SDS011;11046;49.558;8.674;2023-04-28T01:27:05;5.10;;;3.45;;
21769;SDS011;11046;49.558;8.674;2023-04-28T01:30:06;7.15;;;3.80;;
21769;SDS011;11046;49.558;8.674;2023-04-28T01:33:07;5.13;;;3.13;;
21769;SDS011;11046;49.558;8.674;2023-04-28T01:36:08;5.43;;;3.50;;
21769;SDS011;11046;49.558;8.674;2023-04-28T01:39:10;6.43;;;3.10;;
21769;SDS011;11046;49.558;8.674;2023-04-28T01:42:13;4.65;;;3.30;;
21769;SDS011;11046;49.558;8.674;2023-04-28T01:45:13;4.78;;;3.33;;
21769;SDS011;11046;49.558;8.674;2023-04-28T01:48:14;9.15;;;3.58;;
21769;SDS011;11046;49.558;8.674;2023-04-28T01:51:15;6.70;;;3.22;;
21769;SDS011;11046;49.558;8.674;2023-04-28T01:54:15;6.80;;;3.42;;
21769;SDS011;11046;49.558;8.674;2023-04-28T01:57:16;3.72;;;2.72;;
21769;SDS011;11046;49.558;8.674;2023-04-28T02:00:17;6.53;;;3.30;;
21769;SDS011;11046;49.558;8.674;2023-04-28T02:03:21;7.30;;;2.90;;
21769;SDS011;11046;49.558;8.674;2023-04-28T02:06:22;5.82;;;2.70;;
21769;SDS011;11046;49.558;8.674;2023-04-28T02:09:22;6.80;;;3.10;;
21769;SDS011;11046;49.558;8.674;2023-04-28T02:12:24;4.23;;;3.00;;
21769;SDS011;11046;49.558;8.674;2023-04-28T02:15:24;7.03;;;3.23;;
21769;SDS011;11046;49.558;8.674;2023-04-28T02:18:26;3.78;;;2.70;;
21769;SDS011;11046;49.558;8.674;2023-04-28T02:21:27;3.53;;;2.58;;
21769;SDS011;11046;49.558;8.674;2023-04-28T02:24:28;4.30;;;2.38;;
21769;SDS011;11046;49.558;8.674;2023-04-28T02:27:30;5.75;;;2.60;;
21769;SDS011;11046;49.558;8.674;2023-04-28T02:30:32;10.18;;;3.63;;
21769;SDS011;11046;49.558;8.674;2023-04-28T02:33:32;5.60;;;2.53;;
21769;SDS011;11046;49.558;8.674;2023-04-28T02:36:33;3.38;;;2.65;;
21769;SDS011;11046;49.558;8.674;2023-04-28T02:39:33;5.78;;;3.13;;
21769;SDS011;11046;49.558;8.674;2023-04-28T02:42:34;4.95;;;3.65;;
21769;SDS011;11046;49.558;8.674;2023-04-28T02:45:35;9.23;;;4.57;;
21769;SDS011;11046;49.558;8.674;2023-04-28T02:48:35;6.45;;;4.68;;
21769;SDS011;11046;49.558;8.674;2023-04-28T02:51:36;8.10;;;4.93;;
21769;SDS011;11046;49.558;8.674;2023-04-28T02:54:37;10.77;;;5.22;;
21769;SDS011;11046;49.558;8.674;2023-04-28T02:57:38;8.60;;;5.20;;
21769;SDS011;11046;49.558;8.674;2023-04-28T03:00:39;12.25;;;4.95;;
21769;SDS011;11046;49.558;8.674;2023-04-28T03:03:39;10.05;;;4.70;;
21769;SDS011;11046;49.558;8.674;2023-04-28T03:06:40;8.15;;;4.88;;
21769;SDS011;11046;49.558;8.674;2023-04-28T03:09:41;8.68;;;5.13;;
21769;SDS011;11046;49.558;8.674;2023-04-28T03:12:41;9.18;;;5.55;;
21769;SDS011;11046;49.558;8.674;2023-04-28T03:15:42;7.57;;;5.07;;
21769;SDS011;11046;49.558;8.674;2023-04-28T03:18:43;8.43;;;4.90;;
21769;SDS011;11046;49.558;8.674;2023-04-28T03:21:43;7.03;;;4.83;;
21769;SDS011;11046;49.558;8.674;2023-04-28T03:24:46;6.80;;;4.03;;
21769;SDS011;11046;49.558;8.674;2023-04-28T03:27:47;8.95;;;4.65;;
21769;SDS011;11046;49.558;8.674;2023-04-28T03:30:47;8.40;;;4.70;;
21769;SDS011;11046;49.558;8.674;2023-04-28T03:33:48;8.27;;;5.20;;
21769;SDS011;11046;49.558;8.674;2023-04-28T03:36:50;7.97;;;4.63;;
21769;SDS011;11046;49.558;8.674;2023-04-28T03:39:58;9.57;;;4.88;;
21769;SDS011;11046;49.558;8.674;2023-04-28T03:42:58;7.17;;;4.87;;
21769;SDS011;11046;49.558;8.674;2023-04-28T03:46:06;6.33;;;4.50;;
21769;SDS011;11046;49.558;8.674;2023-04-28T03:49:07;7.97;;;5.00;;
21769;SDS011;11046;49.558;8.674;2023-04-28T03:52:07;11.10;;;6.13;;
21769;SDS011;11046;49.558;8.674;2023-04-28T03:55:08;8.00;;;5.10;;
21769;SDS011;11046;49.558;8.674;2023-04-28T03:58:09;5.53;;;4.13;;
21769;SDS011;11046;49.558;8.674;2023-04-28T04:01:10;5.73;;;3.90;;
21769;SDS011;11046;49.558;8.674;2023-04-28T04:04:10;7.40;;;3.63;;
21769;SDS011;11046;49.558;8.674;2023-04-28T04:07:12;5.50;;;3.73;;
21769;SDS011;11046;49.558;8.674;2023-04-28T04:10:13;6.40;;;3.93;;
21769;SDS011;11046;49.558;8.674;2023-04-28T04:13:17;5.53;;;4.30;;
21769;SDS011;11046;49.558;8.674;2023-04-28T04:16:18;7.00;;;4.30;;
21769;SDS011;11046;49.558;8.674;2023-04-28T04:19:18;9.80;;;4.03;;
21769;SDS011;11046;49.558;8.674;2023-04-28T04:22:23;5.17;;;3.77;;
21769;SDS011;11046;49.558;8.674;2023-04-28T04:25:23;5.60;;;3.80;;
21769;SDS011;11046;49.558;8.674;2023-04-28T04:28:25;6.77;;;4.03;;
21769;SDS011;11046;49.558;8.674;2023-04-28T04:31:26;7.13;;;3.53;;
21769;SDS011;11046;49.558;8.674;2023-04-28T04:34:27;5.20;;;3.83;;
21769;SDS011;11046;49.558;8.674;2023-04-28T04:37:28;6.80;;;4.20;;
21769;SDS011;11046;49.558;8.674;2023-04-28T04:40:33;12.38;;;5.47;;
21769;SDS011;11046;49.558;8.674;2023-04-28T04:43:33;12.23;;;6.63;;
21769;SDS011;11046;49.558;8.674;2023-04-28T04:46:34;14.30;;;6.73;;
21769;SDS011;11046;49.558;8.674;2023-04-28T04:49:35;13.90;;;7.47;;
21769;SDS011;11046;49.558;8.674;2023-04-28T04:52:36;14.50;;;6.83;;
21769;SDS011;11046;49.558;8.674;2023-04-28T04:55:37;11.53;;;6.40;;
21769;SDS011;11046;49.558;8.674;2023-04-28T04:58:38;11.20;;;6.60;;
21769;SDS011;11046;49.558;8.674;2023-04-28T05:02:07;12.17;;;6.97;;
21769;SDS011;11046;49.558;8.674;2023-04-28T05:05:07;9.68;;;6.30;;
21769;SDS011;11046;49.558;8.674;2023-04-28T05:08:10;17.50;;;6.67;;
21769;SDS011;11046;49.558;8.674;2023-04-28T05:11:11;11.68;;;6.70;;
21769;SDS011;11046;49.558;8.674;2023-04-28T05:14:15;11.03;;;6.97;;
21769;SDS011;11046;49.558;8.674;2023-04-28T05:17:16;9.40;;;4.70;;
21769;SDS011;11046;49.558;8.674;2023-04-28T05:20:17;9.03;;;5.27;;
21769;SDS011;11046;49.558;8.674;2023-04-28T05:23:17;9.37;;;4.77;;
21769;SDS011;11046;49.558;8.674;2023-04-28T05:26:18;8.47;;;4.30;;
21769;SDS011;11046;49.558;8.674;2023-04-28T05:29:19;9.37;;;5.33;;
21769;SDS011;11046;49.558;8.674;2023-04-28T05:32:20;9.17;;;5.73;;
21769;SDS011;11046;49.558;8.674;2023-04-28T05:35:21;11.10;;;6.30;;
21769;SDS011;11046;49.558;8.674;2023-04-28T05:38:22;9.60;;;5.40;;
21769;SDS011;11046;49.558;8.674;2023-04-28T05:41:24;8.17;;;5.50;;
21769;SDS011;11046;49.558;8.674;2023-04-28T05:44:24;8.07;;;5.40;;
21769;SDS011;11046;49.558;8.674;2023-04-28T05:47:25;8.57;;;5.50;;
21769;SDS011;11046;49.558;8.674;2023-04-28T05:50:26;8.67;;;5.23;;
21769;SDS011;11046;49.558;8.674;2023-04-28T05:53:26;8.87;;;5.37;;
21769;SDS011;11046;49.558;8.674;2023-04-28T05:56:27;9.50;;;4.83;;
21769;SDS011;11046;49.558;8.674;2023-04-28T05:59:28;13.53;;;5.07;;
21769;SDS011;11046;49.558;8.674;2023-04-28T06:02:31;8.07;;;5.43;;
21769;SDS011;11046;49.558;8.674;2023-04-28T06:05:31;8.87;;;5.27;;
21769;SDS011;11046;49.558;8.674;2023-04-28T06:08:32;10.35;;;5.40;;
21769;SDS011;11046;49.558;8.674;2023-04-28T06:11:33;12.17;;;4.90;;
21769;SDS011;11046;49.558;8.674;2023-04-28T06:14:34;7.40;;;5.00;;
21769;SDS011;11046;49.558;8.674;2023-04-28T06:17:37;7.17;;;4.90;;
21769;SDS011;11046;49.558;8.674;2023-04-28T06:20:38;7.33;;;4.90;;
21769;SDS011;11046;49.558;8.674;2023-04-28T06:23:39;10.88;;;5.70;;
21769;SDS011;11046;49.558;8.674;2023-04-28T06:26:41;10.13;;;6.30;;
21769;SDS011;11046;49.558;8.674;2023-04-28T06:29:43;10.53;;;6.83;;
21769;SDS011;11046;49.558;8.674;2023-04-28T06:32:44;14.10;;;7.67;;
21769;SDS011;11046;49.558;8.674;2023-04-28T06:35:44;16.00;;;7.50;;
21769;SDS011;11046;49.558;8.674;2023-04-28T06:38:45;11.23;;;7.23;;
21769;SDS011;11046;49.558;8.674;2023-04-28T06:41:46;9.33;;;6.67;;
21769;SDS011;11046;49.558;8.674;2023-04-28T06:44:47;10.80;;;6.68;;
21769;SDS011;11046;49.558;8.674;2023-04-28T06:47:47;8.85;;;6.32;;
21769;SDS011;11046;49.558;8.674;2023-04-28T06:50:48;10.20;;;5.97;;
21769;SDS011;11046;49.558;8.674;2023-04-28T06:53:48;10.23;;;6.37;;
21769;SDS011;11046;49.558;8.674;2023-04-28T06:56:52;10.00;;;6.65;;
21769;SDS011;11046;49.558;8.674;2023-04-28T06:59:52;11.00;;;7.40;;
21769;SDS011;11046;49.558;8.674;2023-04-28T07:02:54;11.57;;;7.47;;
21769;SDS011;11046;49.558;8.674;2023-04-28T07:05:55;13.10;;;7.18;;
21769;SDS011;11046;49.558;8.674;2023-04-28T07:08:56;12.27;;;6.90;;
21769;SDS011;11046;49.558;8.674;2023-04-28T07:11:57;14.93;;;7.50;;
21769;SDS011;11046;49.558;8.674;2023-04-28T07:14:58;14.73;;;7.87;;
21769;SDS011;11046;49.558;8.674;2023-04-28T07:17:59;12.40;;;6.90;;
21769;SDS011;11046;49.558;8.674;2023-04-28T07:20:59;11.90;;;7.13;;
21769;SDS011;11046;49.558;8.674;2023-04-28T07:24:00;11.33;;;7.20;;
21769;SDS011;11046;49.558;8.674;2023-04-28T07:27:01;15.50;;;7.60;;
21769;SDS011;11046;49.558;8.674;2023-04-28T07:30:02;10.97;;;7.10;;
21769;SDS011;11046;49.558;8.674;2023-04-28T07:33:03;12.00;;;7.10;;
21769;SDS011;11046;49.558;8.674;2023-04-28T07:36:04;10.20;;;6.90;;
21769;SDS011;11046;49.558;8.674;2023-04-28T07:39:05;11.63;;;6.67;;
21769;SDS011;11046;49.558;8.674;2023-04-28T07:42:06;11.75;;;7.00;;
21769;SDS011;11046;49.558;8.674;2023-04-28T07:45:06;10.10;;;6.43;;
21769;SDS011;11046;49.558;8.674;2023-04-28T07:48:07;11.98;;;6.90;;
21769;SDS011;11046;49.558;8.674;2023-04-28T07:51:08;10.30;;;6.38;;
21769;SDS011;11046;49.558;8.674;2023-04-28T07:54:08;8.97;;;6.10;;
21769;SDS011;11046;49.558;8.674;2023-04-28T07:57:09;10.77;;;7.03;;
21769;SDS011;11046;49.558;8.674;2023-04-28T08:00:10;12.10;;;6.88;;
21769;SDS011;11046;49.558;8.674;2023-04-28T08:03:14;9.77;;;6.73;;
21769;SDS011;11046;49.558;8.674;2023-04-28T08:06:14;10.45;;;6.63;;
21769;SDS011;11046;49.558;8.674;2023-04-28T08:09:15;11.37;;;6.60;;
21769;SDS011;11046;49.558;8.674;2023-04-28T08:12:16;9.93;;;6.37;;
21769;SDS011;11046;49.558;8.674;2023-04-28T08:15:17;8.57;;;6.35;;
21769;SDS011;11046;49.558;8.674;2023-04-28T08:18:17;9.80;;;7.10;;
21769;SDS011;11046;49.558;8.674;2023-04-28T08:21:18;10.27;;;7.43;;
21769;SDS011;11046;49.558;8.674;2023-04-28T08:24:18;9.73;;;6.97;;
21769;SDS011;11046;49.558;8.674;2023-04-28T08:27:19;10.13;;;7.03;;
21769;SDS011;11046;49.558;8.674;2023-04-28T08:30:20;9.82;;;7.65;;
21769;SDS011;11046;49.558;8.674;2023-04-28T08:33:21;11.27;;;8.40;;
21769;SDS011;11046;49.558;8.674;2023-04-28T08:36:23;10.70;;;7.78;;
21769;SDS011;11046;49.558;8.674;2023-04-28T08:39:25;11.15;;;7.75;;
21769;SDS011;11046;49.558;8.674;2023-04-28T08:42:29;8.57;;;6.43;;
21769;SDS011;11046;49.558;8.674;2023-04-28T08:45:30;9.38;;;6.85;;
21769;SDS011;11046;49.558;8.674;2023-04-28T08:48:41;8.57;;;6.57;;
21769;SDS011;11046;49.558;8.674;2023-04-28T08:51:49;7.90;;;6.20;;
21769;SDS011;11046;49.558;8.674;2023-04-28T08:54:55;8.38;;;5.95;;
21769;SDS011;11046;49.558;8.674;2023-04-28T08:58:00;7.32;;;5.38;;
21769;SDS011;11046;49.558;8.674;2023-04-28T09:01:02;7.28;;;5.20;;
21769;SDS011;11046;49.558;8.674;2023-04-28T09:04:03;7.80;;;5.00;;
21769;SDS011;11046;49.558;8.674;2023-04-28T09:07:09;6.55;;;4.63;;
21769;SDS011;11046;49.558;8.674;2023-04-28T09:10:14;6.60;;;4.75;;
21769;SDS011;11046;49.558;8.674;2023-04-28T09:13:25;5.60;;;4.38;;
21769;SDS011;11046;49.558;8.674;2023-04-28T09:16:38;6.30;;;4.97;;
21769;SDS011;11046;49.558;8.674;2023-04-28T09:19:39;8.02;;;4.53;;
21769;SDS011;11046;49.558;8.674;2023-04-28T09:22:42;7.72;;;3.75;;
21769;SDS011;11046;49.558;8.674;2023-04-28T09:25:58;5.90;;;4.70;;
21769;SDS011;11046;49.558;8.674;2023-04-28T09:29:12;6.25;;;4.60;;
21769;SDS011;11046;49.558;8.674;2023-04-28T09:35:37;10.35;;;5.00;;
21769;SDS011;11046;49.558;8.674;2023-04-28T09:38:44;7.82;;;5.50;;
21769;SDS011;11046;49.558;8.674;2023-04-28T09:41:45;7.85;;;5.80;;
21769;SDS011;11046;49.558;8.674;2023-04-28T09:44:52;6.63;;;5.13;;
21769;SDS011;11046;49.558;8.674;2023-04-28T09:47:54;8.57;;;4.93;;
21769;SDS011;11046;49.558;8.674;2023-04-28T09:51:09;8.32;;;4.90;;
21769;SDS011;11046;49.558;8.674;2023-04-28T09:54:10;8.48;;;5.47;;
21769;SDS011;11046;49.558;8.674;2023-04-28T09:57:12;8.80;;;6.00;;
21769;SDS011;11046;49.558;8.674;2023-04-28T10:00:13;7.65;;;5.72;;
21769;SDS011;11046;49.558;8.674;2023-04-28T10:03:15;9.05;;;6.45;;
21769;SDS011;11046;49.558;8.674;2023-04-28T10:06:17;10.05;;;7.28;;
21769;SDS011;11046;49.558;8.674;2023-04-28T10:09:18;8.65;;;5.78;;
21769;SDS011;11046;49.558;8.674;2023-04-28T10:12:25;8.70;;;6.60;;
21769;SDS011;11046;49.558;8.674;2023-04-28T10:15:26;10.20;;;7.10;;
21769;SDS011;11046;49.558;8.674;2023-04-28T10:18:27;9.52;;;7.20;;
21769;SDS011;11046;49.558;8.674;2023-04-28T10:21:29;11.35;;;8.05;;
21769;SDS011;11046;49.558;8.674;2023-04-28T10:24:45;11.85;;;8.05;;
21769;SDS011;11046;49.558;8.674;2023-04-28T10:28:06;11.18;;;7.47;;
21769;SDS011;11046;49.558;8.674;2023-04-28T10:31:11;11.35;;;8.02;;
21769;SDS011;11046;49.558;8.674;2023-04-28T10:34:22;10.00;;;7.47;;
21769;SDS011;11046;49.558;8.674;2023-04-28T10:38:01;10.70;;;7.55;;
21769;SDS011;11046;49.558;8.674;2023-04-28T10:41:02;9.77;;;8.05;;
21769;SDS011;11046;49.558;8.674;2023-04-28T10:47:28;9.57;;;7.32;;
21769;SDS011;11046;49.558;8.674;2023-04-28T10:54:06;9.13;;;7.40;;
21769;SDS011;11046;49.558;8.674;2023-04-28T10:57:14;9.57;;;7.40;;
21769;SDS011;11046;49.558;8.674;2023-04-28T11:00:28;11.63;;;8.43;;
21769;SDS011;11046;49.558;8.674;2023-04-28T11:07:09;10.32;;;7.82;;
21769;SDS011;11046;49.558;8.674;2023-04-28T11:10:11;9.98;;;7.53;;
21769;SDS011;11046;49.558;8.674;2023-04-28T11:13:27;11.23;;;8.27;;
21769;SDS011;11046;49.558;8.674;2023-04-28T11:16:32;9.50;;;7.32;;
21769;SDS011;11046;49.558;8.674;2023-04-28T11:19:46;10.38;;;7.63;;
21769;SDS011;11046;49.558;8.674;2023-04-28T11:22:50;9.02;;;7.40;;
21769;SDS011;11046;49.558;8.674;2023-04-28T11:25:55;10.23;;;7.28;;
21769;SDS011;11046;49.558;8.674;2023-04-28T11:28:57;8.30;;;6.57;;
21769;SDS011;11046;49.558;8.674;2023-04-28T11:31:57;9.57;;;7.10;;
21769;SDS011;11046;49.558;8.674;2023-04-28T11:34:58;11.07;;;7.13;;
21769;SDS011;11046;49.558;8.674;2023-04-28T11:38:02;12.45;;;7.57;;
21769;SDS011;11046;49.558;8.674;2023-04-28T11:41:05;9.95;;;7.40;;
21769;SDS011;11046;49.558;8.674;2023-04-28T11:44:09;9.02;;;6.75;;
21769;SDS011;11046;49.558;8.674;2023-04-28T11:47:13;10.23;;;7.50;;
21769;SDS011;11046;49.558;8.674;2023-04-28T11:50:14;11.20;;;7.35;;
21769;SDS011;11046;49.558;8.674;2023-04-28T11:53:15;11.43;;;8.10;;
21769;SDS011;11046;49.558;8.674;2023-04-28T11:56:16;10.68;;;7.57;;
21769;SDS011;11046;49.558;8.674;2023-04-28T11:59:17;10.43;;;8.07;;
21769;SDS011;11046;49.558;8.674;2023-04-28T12:02:24;10.48;;;7.78;;
21769;SDS011;11046;49.558;8.674;2023-04-28T12:05:27;10.63;;;6.93;;
21769;SDS011;11046;49.558;8.674;2023-04-28T12:08:27;9.65;;;6.15;;
21769;SDS011;11046;49.558;8.674;2023-04-28T12:11:28;8.75;;;6.57;;
21769;SDS011;11046;49.558;8.674;2023-04-28T12:14:30;8.02;;;6.20;;
21769;SDS011;11046;49.558;8.674;2023-04-28T12:17:38;9.88;;;6.90;;
21769;SDS011;11046;49.558;8.674;2023-04-28T12:20:40;10.00;;;6.85;;
21769;SDS011;11046;49.558;8.674;2023-04-28T12:23:41;9.80;;;6.25;;
21769;SDS011;11046;49.558;8.674;2023-04-28T12:26:42;8.85;;;7.00;;
21769;SDS011;11046;49.558;8.674;2023-04-28T12:29:43;9.52;;;6.78;;
21769;SDS011;11046;49.558;8.674;2023-04-28T12:32:45;10.35;;;6.55;;
21769;SDS011;11046;49.558;8.674;2023-04-28T12:35:46;10.00;;;6.50;;
21769;SDS011;11046;49.558;8.674;2023-04-28T12:38:48;7.28;;;6.03;;
21769;SDS011;11046;49.558;8.674;2023-04-28T12:41:49;9.45;;;6.55;;
21769;SDS011;11046;49.558;8.674;2023-04-28T12:44:50;7.97;;;6.10;;
21769;SDS011;11046;49.558;8.674;2023-04-28T12:47:50;7.88;;;5.95;;
21769;SDS011;11046;49.558;8.674;2023-04-28T12:50:51;8.40;;;4.90;;
21769;SDS011;11046;49.558;8.674;2023-04-28T12:53:51;6.07;;;4.68;;
21769;SDS011;11046;49.558;8.674;2023-04-28T12:56:52;5.90;;;4.32;;
21769;SDS011;11046;49.558;8.674;2023-04-28T12:59:55;5.22;;;3.90;;
21769;SDS011;11046;49.558;8.674;2023-04-28T13:02:56;3.65;;;2.67;;
21769;SDS011;11046;49.558;8.674;2023-04-28T13:05:57;5.78;;;2.75;;
21769;SDS011;11046;49.558;8.674;2023-04-28T13:08:58;3.63;;;2.53;;
21769;SDS011;11046;49.558;8.674;2023-04-28T13:11:58;3.58;;;2.42;;
21769;SDS011;11046;49.558;8.674;2023-04-28T13:15:02;5.43;;;2.47;;
21769;SDS011;11046;49.558;8.674;2023-04-28T13:18:03;6.40;;;2.40;;
21769;SDS011;11046;49.558;8.674;2023-04-28T13:21:04;4.05;;;2.05;;
21769;SDS011;11046;49.558;8.674;2023-04-28T13:24:04;2.03;;;1.77;;
21769;SDS011;11046;49.558;8.674;2023-04-28T13:27:05;2.13;;;1.65;;
21769;SDS011;11046;49.558;8.674;2023-04-28T13:30:08;3.85;;;1.83;;
21769;SDS011;11046;49.558;8.674;2023-04-28T13:33:10;3.95;;;1.30;;
21769;SDS011;11046;49.558;8.674;2023-04-28T13:36:11;3.28;;;1.42;;
21769;SDS011;11046;49.558;8.674;2023-04-28T13:39:11;2.78;;;1.60;;
21769;SDS011;11046;49.558;8.674;2023-04-28T13:42:15;1.90;;;1.27;;
21769;SDS011;11046;49.558;8.674;2023-04-28T13:45:15;4.45;;;1.60;;
21769;SDS011;11046;49.558;8.674;2023-04-28T13:48:16;1.77;;;1.20;;
21769;SDS011;11046;49.558;8.674;2023-04-28T13:51:17;1.30;;;1.20;;
21769;SDS011;11046;49.558;8.674;2023-04-28T13:54:17;1.55;;;1.17;;
21769;SDS011;11046;49.558;8.674;2023-04-28T13:57:18;1.67;;;1.38;;
21769;SDS011;11046;49.558;8.674;2023-04-28T14:00:18;3.15;;;1.63;;
21769;SDS011;11046;49.558;8.674;2023-04-28T14:03:20;1.58;;;1.48;;
21769;SDS011;11046;49.558;8.674;2023-04-28T14:06:21;3.13;;;1.85;;
21769;SDS011;11046;49.558;8.674;2023-04-28T14:09:22;2.25;;;1.65;;
21769;SDS011;11046;49.558;8.674;2023-04-28T14:12:23;2.42;;;1.75;;
21769;SDS011;11046;49.558;8.674;2023-04-28T14:15:24;1.83;;;1.40;;
21769;SDS011;11046;49.558;8.674;2023-04-28T14:18:25;3.25;;;1.63;;
21769;SDS011;11046;49.558;8.674;2023-04-28T14:21:28;2.78;;;1.75;;
21769;SDS011;11046;49.558;8.674;2023-04-28T14:24:30;3.88;;;1.92;;
21769;SDS011;11046;49.558;8.674;2023-04-28T14:27:30;3.55;;;2.05;;
21769;SDS011;11046;49.558;8.674;2023-04-28T14:30:32;3.20;;;1.70;;
21769;SDS011;11046;49.558;8.674;2023-04-28T14:33:32;4.68;;;1.95;;
21769;SDS011;11046;49.558;8.674;2023-04-28T14:36:33;4.45;;;2.30;;
21769;SDS011;11046;49.558;8.674;2023-04-28T14:39:37;2.63;;;1.75;;
21769;SDS011;11046;49.558;8.674;2023-04-28T14:42:38;3.67;;;2.00;;
21769;SDS011;11046;49.558;8.674;2023-04-28T14:45:39;5.18;;;2.45;;
21769;SDS011;11046;49.558;8.674;2023-04-28T14:48:40;10.05;;;2.63;;
21769;SDS011;11046;49.558;8.674;2023-04-28T14:51:40;3.55;;;2.33;;
21769;SDS011;11046;49.558;8.674;2023-04-28T14:54:41;5.47;;;2.72;;
21769;SDS011;11046;49.558;8.674;2023-04-28T14:57:42;7.38;;;2.50;;
21769;SDS011;11046;49.558;8.674;2023-04-28T15:00:42;8.85;;;2.30;;
21769;SDS011;11046;49.558;8.674;2023-04-28T15:03:43;2.42;;;1.92;;
21769;SDS011;11046;49.558;8.674;2023-04-28T15:06:44;6.13;;;2.20;;
21769;SDS011;11046;49.558;8.674;2023-04-28T15:09:45;6.95;;;2.00;;
21769;SDS011;11046;49.558;8.674;2023-04-28T15:12:46;1.98;;;1.35;;
21769;SDS011;11046;49.558;8.674;2023-04-28T15:15:47;3.70;;;1.40;;
21769;SDS011;11046;49.558;8.674;2023-04-28T15:18:49;2.47;;;1.58;;
21769;SDS011;11046;49.558;8.674;2023-04-28T15:21:50;3.08;;;1.15;;
21769;SDS011;11046;49.558;8.674;2023-04-28T15:24:51;1.58;;;1.20;;
21769;SDS011;11046;49.558;8.674;2023-04-28T15:27:51;2.53;;;1.23;;
21769;SDS011;11046;49.558;8.674;2023-04-28T15:30:52;1.83;;;1.20;;
21769;SDS011;11046;49.558;8.674;2023-04-28T15:33:53;1.20;;;1.08;;
21769;SDS011;11046;49.558;8.674;2023-04-28T15:36:54;2.85;;;1.30;;
21769;SDS011;11046;49.558;8.674;2023-04-28T15:39:55;1.17;;;1.00;;
21769;SDS011;11046;49.558;8.674;2023-04-28T15:42:56;2.80;;;1.23;;
21769;SDS011;11046;49.558;8.674;2023-04-28T15:45:57;0.70;;;0.70;;
21769;SDS011;11046;49.558;8.674;2023-04-28T15:48:58;0.73;;;0.70;;
21769;SDS011;11046;49.558;8.674;2023-04-28T15:51:58;0.70;;;0.70;;
21769;SDS011;11046;49.558;8.674;2023-04-28T15:54:59;0.95;;;0.85;;
21769;SDS011;11046;49.558;8.674;2023-04-28T15:58:00;1.40;;;0.80;;
21769;SDS011;11046;49.558;8.674;2023-04-28T16:01:01;0.82;;;0.80;;
21769;SDS011;11046;49.558;8.674;2023-04-28T16:04:02;2.00;;;0.93;;
21769;SDS011;11046;49.558;8.674;2023-04-28T16:07:02;2.95;;;1.00;;
21769;SDS011;11046;49.558;8.674;2023-04-28T16:10:12;1.02;;;0.90;;
21769;SDS011;11046;49.558;8.674;2023-04-28T16:13:14;1.83;;;0.95;;
21769;SDS011;11046;49.558;8.674;2023-04-28T16:16:14;3.47;;;1.52;;
21769;SDS011;11046;49.558;8.674;2023-04-28T16:19:15;5.28;;;2.15;;
21769;SDS011;11046;49.558;8.674;2023-04-28T16:22:16;3.92;;;2.10;;
21769;SDS011;11046;49.558;8.674;2023-04-28T16:25:16;2.78;;;1.48;;
21769;SDS011;11046;49.558;8.674;2023-04-28T16:28:17;4.25;;;1.98;;
21769;SDS011;11046;49.558;8.674;2023-04-28T16:31:17;4.25;;;1.85;;
21769;SDS011;11046;49.558;8.674;2023-04-28T16:34:18;2.60;;;1.90;;
21769;SDS011;11046;49.558;8.674;2023-04-28T16:37:18;7.28;;;1.80;;
21769;SDS011;11046;49.558;8.674;2023-04-28T16:40:19;2.65;;;1.90;;
21769;SDS011;11046;49.558;8.674;2023-04-28T16:43:21;2.38;;;1.50;;
21769;SDS011;11046;49.558;8.674;2023-04-28T16:46:21;3.42;;;1.77;;
21769;SDS011;11046;49.558;8.674;2023-04-28T16:49:22;2.72;;;1.52;;
21769;SDS011;11046;49.558;8.674;2023-04-28T16:52:23;3.38;;;1.90;;
21769;SDS011;11046;49.558;8.674;2023-04-28T16:55:23;2.30;;;1.42;;
21769;SDS011;11046;49.558;8.674;2023-04-28T16:58:24;1.83;;;1.00;;
21769;SDS011;11046;49.558;8.674;2023-04-28T17:01:24;3.33;;;1.30;;
21769;SDS011;11046;49.558;8.674;2023-04-28T17:04:25;1.63;;;1.40;;
21769;SDS011;11046;49.558;8.674;2023-04-28T17:07:26;1.70;;;1.38;;
21769;SDS011;11046;49.558;8.674;2023-04-28T17:10:27;1.95;;;1.48;;
21769;SDS011;11046;49.558;8.674;2023-04-28T17:13:27;3.45;;;1.40;;
21769;SDS011;11046;49.558;8.674;2023-04-28T17:16:31;2.55;;;1.55;;
21769;SDS011;11046;49.558;8.674;2023-04-28T17:19:33;3.65;;;1.50;;
21769;SDS011;11046;49.558;8.674;2023-04-28T17:22:33;1.60;;;1.30;;
21769;SDS011;11046;49.558;8.674;2023-04-28T17:25:35;4.22;;;1.58;;
21769;SDS011;11046;49.558;8.674;2023-04-28T17:28:37;2.88;;;1.30;;
21769;SDS011;11046;49.558;8.674;2023-04-28T17:31:39;2.20;;;1.45;;
21769;SDS011;11046;49.558;8.674;2023-04-28T17:34:40;1.67;;;1.42;;
21769;SDS011;11046;49.558;8.674;2023-04-28T17:37:41;3.53;;;2.00;;
21769;SDS011;11046;49.558;8.674;2023-04-28T17:40:41;1.85;;;1.50;;
21769;SDS011;11046;49.558;8.674;2023-04-28T17:43:47;2.70;;;1.70;;
21769;SDS011;11046;49.558;8.674;2023-04-28T17:46:50;1.92;;;1.30;;
21769;SDS011;11046;49.558;8.674;2023-04-28T17:49:50;7.53;;;1.65;;
21769;SDS011;11046;49.558;8.674;2023-04-28T17:52:51;2.22;;;1.42;;
21769;SDS011;11046;49.558;8.674;2023-04-28T17:55:52;2.50;;;1.63;;
21769;SDS011;11046;49.558;8.674;2023-04-28T17:58:53;1.50;;;1.40;;
21769;SDS011;11046;49.558;8.674;2023-04-28T18:01:54;7.47;;;5.53;;
21769;SDS011;11046;49.558;8.674;2023-04-28T18:04:55;10.27;;;5.97;;
21769;SDS011;11046;49.558;8.674;2023-04-28T18:07:59;3.67;;;1.20;;
21769;SDS011;11046;49.558;8.674;2023-04-28T18:11:02;6.55;;;3.88;;
21769;SDS011;11046;49.558;8.674;2023-04-28T18:14:03;7.97;;;5.93;;
21769;SDS011;11046;49.558;8.674;2023-04-28T18:17:04;6.68;;;3.40;;
21769;SDS011;11046;49.558;8.674;2023-04-28T18:20:04;2.92;;;2.00;;
21769;SDS011;11046;49.558;8.674;2023-04-28T18:23:06;9.70;;;1.33;;
21769;SDS011;11046;49.558;8.674;2023-04-28T18:26:06;5.13;;;1.30;;
21769;SDS011;11046;49.558;8.674;2023-04-28T18:29:07;3.33;;;1.10;;